sensor_id;sensor_type;location;lat;lon;timestamp;pressure;altitude;pressure_sealevel;temperature;humidity
4273;BME280;63887;53.656;9.810;2022-12-19T00:02:14;102369.00;;;-2.50;76.39
4273;BME280;63887;53.656;9.810;2022-12-19T00:04:41;102365.38;;;-2.58;77.16
4273;BME280;63887;53.656;9.810;2022-12-19T00:07:07;102367.88;;;-2.61;77.40
4273;BME280;63887;53.656;9.810;2022-12-19T00:09:33;102359.31;;;-2.60;77.10
4273;BME280;63887;53.656;9.810;2022-12-19T00:12:00;102349.09;;;-2.59;77.55
4273;BME280;63887;53.656;9.810;2022-12-19T00:14:26;102343.34;;;-2.49;76.67
4273;BME280;63887;53.656;9.810;2022-12-19T00:16:53;102342.44;;;-2.51;76.91
4273;BME280;63887;53.656;9.810;2022-12-19T00:19:20;102337.22;;;-2.54;76.87
4273;BME280;63887;53.656;9.810;2022-12-19T00:21:47;102337.53;;;-2.40;76.27
4273;BME280;63887;53.656;9.810;2022-12-19T00:24:13;102328.00;;;-2.46;76.89
4273;BME280;63887;53.656;9.810;2022-12-19T00:26:40;102331.31;;;-2.51;77.07
4273;BME280;63887;53.656;9.810;2022-12-19T00:29:07;102323.50;;;-2.54;77.36
4273;BME280;63887;53.656;9.810;2022-12-19T00:31:35;102319.41;;;-2.48;76.78
4273;BME280;63887;53.656;9.810;2022-12-19T00:34:02;102318.09;;;-2.30;76.43
4273;BME280;63887;53.656;9.810;2022-12-19T00:36:32;102311.84;;;-2.40;76.88
4273;BME280;63887;53.656;9.810;2022-12-19T00:39:00;102304.28;;;-2.35;76.39
4273;BME280;63887;53.656;9.810;2022-12-19T00:41:28;102302.53;;;-2.36;76.23
4273;BME280;63887;53.656;9.810;2022-12-19T00:43:56;102304.88;;;-2.46;76.77
4273;BME280;63887;53.656;9.810;2022-12-19T00:46:23;102302.38;;;-2.43;77.24
4273;BME280;63887;53.656;9.810;2022-12-19T00:48:51;102303.22;;;-2.44;77.69
4273;BME280;63887;53.656;9.810;2022-12-19T00:51:20;102293.00;;;-2.41;77.29
4273;BME280;63887;53.656;9.810;2022-12-19T00:53:49;102291.56;;;-2.28;76.81
4273;BME280;63887;53.656;9.810;2022-12-19T00:56:18;102299.38;;;-2.23;76.47
4273;BME280;63887;53.656;9.810;2022-12-19T00:58:45;102284.63;;;-2.33;76.77
4273;BME280;63887;53.656;9.810;2022-12-19T01:01:14;102288.09;;;-2.30;76.58
4273;BME280;63887;53.656;9.810;2022-12-19T01:03:40;102296.59;;;-2.34;77.21
4273;BME280;63887;53.656;9.810;2022-12-19T01:06:07;102290.00;;;-2.23;76.78
4273;BME280;63887;53.656;9.810;2022-12-19T01:08:34;102283.03;;;-2.27;76.88
4273;BME280;63887;53.656;9.810;2022-12-19T01:11:03;102279.28;;;-2.03;76.05
4273;BME280;63887;53.656;9.810;2022-12-19T01:13:30;102276.50;;;-2.13;76.15
4273;BME280;63887;53.656;9.810;2022-12-19T01:16:01;102278.28;;;-2.08;76.10
4273;BME280;63887;53.656;9.810;2022-12-19T01:18:27;102273.34;;;-1.99;75.49
4273;BME280;63887;53.656;9.810;2022-12-19T01:20:54;102278.41;;;-2.04;75.80
4273;BME280;63887;53.656;9.810;2022-12-19T01:23:20;102283.25;;;-2.18;76.81
4273;BME280;63887;53.656;9.810;2022-12-19T01:25:48;102277.16;;;-2.23;77.29
4273;BME280;63887;53.656;9.810;2022-12-19T01:28:19;102266.91;;;-2.21;77.34
4273;BME280;63887;53.656;9.810;2022-12-19T01:30:46;102272.16;;;-2.15;76.98
4273;BME280;63887;53.656;9.810;2022-12-19T01:33:13;102262.88;;;-2.08;76.92
4273;BME280;63887;53.656;9.810;2022-12-19T01:35:41;102267.03;;;-2.15;76.94
4273;BME280;63887;53.656;9.810;2022-12-19T01:38:11;102250.91;;;-2.08;76.49
4273;BME280;63887;53.656;9.810;2022-12-19T01:40:38;102249.94;;;-2.12;77.18
4273;BME280;63887;53.656;9.810;2022-12-19T01:43:08;102250.06;;;-2.07;76.54
4273;BME280;63887;53.656;9.810;2022-12-19T01:45:39;102238.84;;;-2.11;76.89
4273;BME280;63887;53.656;9.810;2022-12-19T01:48:15;102246.53;;;-2.11;77.08
4273;BME280;63887;53.656;9.810;2022-12-19T01:50:49;102244.94;;;-2.07;77.19
4273;BME280;63887;53.656;9.810;2022-12-19T01:53:17;102236.47;;;-2.01;76.87
4273;BME280;63887;53.656;9.810;2022-12-19T01:55:44;102235.25;;;-1.76;76.28
4273;BME280;63887;53.656;9.810;2022-12-19T01:58:11;102225.44;;;-1.94;76.61
4273;BME280;63887;53.656;9.810;2022-12-19T02:00:41;102228.03;;;-1.94;76.47
4273;BME280;63887;53.656;9.810;2022-12-19T02:03:10;102216.81;;;-1.98;77.19
4273;BME280;63887;53.656;9.810;2022-12-19T02:05:39;102216.88;;;-1.95;76.84
4273;BME280;63887;53.656;9.810;2022-12-19T02:08:06;102212.84;;;-1.82;76.31
4273;BME280;63887;53.656;9.810;2022-12-19T02:10:33;102201.66;;;-1.84;75.95
4273;BME280;63887;53.656;9.810;2022-12-19T02:12:59;102198.16;;;-1.88;76.60
4273;BME280;63887;53.656;9.810;2022-12-19T02:15:28;102191.59;;;-1.73;76.56
4273;BME280;63887;53.656;9.810;2022-12-19T02:18:05;102188.88;;;-1.80;76.90
4273;BME280;63887;53.656;9.810;2022-12-19T02:21:06;102187.25;;;-1.76;76.90
4273;BME280;63887;53.656;9.810;2022-12-19T02:24:03;102180.41;;;-1.75;76.39
4273;BME280;63887;53.656;9.810;2022-12-19T02:29:50;102174.66;;;-1.62;76.54
4273;BME280;63887;53.656;9.810;2022-12-19T02:32:28;102169.34;;;-1.70;76.89
4273;BME280;63887;53.656;9.810;2022-12-19T02:35:03;102178.00;;;-1.65;77.22
4273;BME280;63887;53.656;9.810;2022-12-19T02:37:33;102179.63;;;-1.70;77.60
4273;BME280;63887;53.656;9.810;2022-12-19T02:40:03;102179.63;;;-1.70;77.81
4273;BME280;63887;53.656;9.810;2022-12-19T02:42:33;102170.44;;;-1.57;77.78
4273;BME280;63887;53.656;9.810;2022-12-19T02:45:02;102171.34;;;-1.54;77.51
4273;BME280;63887;53.656;9.810;2022-12-19T02:47:32;102182.25;;;-1.67;78.77
4273;BME280;63887;53.656;9.810;2022-12-19T02:50:00;102185.59;;;-1.72;79.43
4273;BME280;63887;53.656;9.810;2022-12-19T02:52:44;102182.13;;;-1.74;79.75
4273;BME280;63887;53.656;9.810;2022-12-19T02:55:15;102171.94;;;-1.68;79.41
4273;BME280;63887;53.656;9.810;2022-12-19T02:58:08;102169.81;;;-1.44;78.60
4273;BME280;63887;53.656;9.810;2022-12-19T03:00:45;102169.63;;;-1.55;80.22
4273;BME280;63887;53.656;9.810;2022-12-19T03:03:20;102156.78;;;-1.53;81.44
4273;BME280;63887;53.656;9.810;2022-12-19T03:05:54;102149.03;;;-1.55;82.05
4273;BME280;63887;53.656;9.810;2022-12-19T03:08:30;102155.25;;;-1.43;82.00
4273;BME280;63887;53.656;9.810;2022-12-19T03:11:05;102153.56;;;-1.41;82.07
4273;BME280;63887;53.656;9.810;2022-12-19T03:13:34;102142.34;;;-1.46;82.57
4273;BME280;63887;53.656;9.810;2022-12-19T03:16:03;102144.03;;;-1.48;83.33
4273;BME280;63887;53.656;9.810;2022-12-19T03:18:34;102129.31;;;-1.54;82.73
4273;BME280;63887;53.656;9.810;2022-12-19T03:21:03;102130.97;;;-1.59;83.48
4273;BME280;63887;53.656;9.810;2022-12-19T03:23:32;102128.34;;;-1.62;83.76
4273;BME280;63887;53.656;9.810;2022-12-19T03:26:02;102132.44;;;-1.72;84.33
4273;BME280;63887;53.656;9.810;2022-12-19T03:28:34;102133.38;;;-1.68;84.54
4273;BME280;63887;53.656;9.810;2022-12-19T03:31:02;102117.00;;;-1.73;84.21
4273;BME280;63887;53.656;9.810;2022-12-19T03:33:31;102111.94;;;-1.67;84.69
4273;BME280;63887;53.656;9.810;2022-12-19T03:36:03;102116.31;;;-1.63;83.56
4273;BME280;63887;53.656;9.810;2022-12-19T03:38:31;102118.31;;;-1.45;83.39
4273;BME280;63887;53.656;9.810;2022-12-19T03:41:01;102115.72;;;-1.47;83.79
4273;BME280;63887;53.656;9.810;2022-12-19T03:43:30;102113.19;;;-1.45;83.12
4273;BME280;63887;53.656;9.810;2022-12-19T03:46:00;102106.91;;;-1.61;84.71
4273;BME280;63887;53.656;9.810;2022-12-19T03:48:34;102111.25;;;-1.59;84.83
4273;BME280;63887;53.656;9.810;2022-12-19T03:51:10;102102.63;;;-1.61;85.46
4273;BME280;63887;53.656;9.810;2022-12-19T03:53:49;102095.16;;;-1.47;84.77
4273;BME280;63887;53.656;9.810;2022-12-19T03:56:25;102096.06;;;-1.43;84.88
4273;BME280;63887;53.656;9.810;2022-12-19T03:58:57;102093.56;;;-1.37;84.46
4273;BME280;63887;53.656;9.810;2022-12-19T04:01:27;102081.63;;;-1.34;84.13
4273;BME280;63887;53.656;9.810;2022-12-19T04:03:54;102079.78;;;-1.41;85.12
4273;BME280;63887;53.656;9.810;2022-12-19T04:06:25;102086.66;;;-1.41;85.63
4273;BME280;63887;53.656;9.810;2022-12-19T04:08:54;102083.38;;;-1.33;84.74
4273;BME280;63887;53.656;9.810;2022-12-19T04:11:24;102080.72;;;-1.36;84.84
4273;BME280;63887;53.656;9.810;2022-12-19T04:13:54;102072.78;;;-1.50;85.44
4273;BME280;63887;53.656;9.810;2022-12-19T04:16:25;102065.16;;;-1.45;85.60
4273;BME280;63887;53.656;9.810;2022-12-19T04:18:57;102066.28;;;-1.28;84.94
4273;BME280;63887;53.656;9.810;2022-12-19T04:21:31;102074.72;;;-1.35;85.30
4273;BME280;63887;53.656;9.810;2022-12-19T04:24:04;102063.53;;;-1.38;85.75
4273;BME280;63887;53.656;9.810;2022-12-19T04:26:34;102057.53;;;-1.37;85.66
4273;BME280;63887;53.656;9.810;2022-12-19T04:29:03;102060.25;;;-1.28;86.06
4273;BME280;63887;53.656;9.810;2022-12-19T04:31:31;102056.75;;;-1.33;85.85
4273;BME280;63887;53.656;9.810;2022-12-19T04:33:57;102047.22;;;-1.39;85.98
4273;BME280;63887;53.656;9.810;2022-12-19T04:36:24;102039.50;;;-1.39;86.56
4273;BME280;63887;53.656;9.810;2022-12-19T04:38:52;102030.00;;;-1.44;86.65
4273;BME280;63887;53.656;9.810;2022-12-19T04:41:19;102024.81;;;-1.47;87.01
4273;BME280;63887;53.656;9.810;2022-12-19T04:43:45;102024.06;;;-1.37;87.22
4273;BME280;63887;53.656;9.810;2022-12-19T04:46:12;102012.97;;;-1.35;86.90
4273;BME280;63887;53.656;9.810;2022-12-19T04:48:38;102008.94;;;-1.16;86.18
4273;BME280;63887;53.656;9.810;2022-12-19T04:51:05;102002.78;;;-1.27;86.73
4273;BME280;63887;53.656;9.810;2022-12-19T04:53:32;101998.47;;;-1.28;86.57
4273;BME280;63887;53.656;9.810;2022-12-19T04:56:00;101988.31;;;-1.19;87.36
4273;BME280;63887;53.656;9.810;2022-12-19T04:58:27;101979.59;;;-1.29;87.41
4273;BME280;63887;53.656;9.810;2022-12-19T05:00:53;101978.78;;;-1.25;86.72
4273;BME280;63887;53.656;9.810;2022-12-19T05:03:19;101976.97;;;-1.33;87.72
4273;BME280;63887;53.656;9.810;2022-12-19T05:05:46;101994.19;;;-1.28;87.83
4273;BME280;63887;53.656;9.810;2022-12-19T05:08:12;101989.19;;;-1.17;87.66
4273;BME280;63887;53.656;9.810;2022-12-19T05:10:39;101978.78;;;-1.25;88.01
4273;BME280;63887;53.656;9.810;2022-12-19T05:13:06;101976.25;;;-1.20;87.44
4273;BME280;63887;53.656;9.810;2022-12-19T05:15:33;101972.75;;;-1.27;88.28
4273;BME280;63887;53.656;9.810;2022-12-19T05:17:59;101958.97;;;-1.32;88.65
4273;BME280;63887;53.656;9.810;2022-12-19T05:20:26;101967.47;;;-1.36;88.66
4273;BME280;63887;53.656;9.810;2022-12-19T05:22:52;101961.53;;;-1.33;89.44
4273;BME280;63887;53.656;9.810;2022-12-19T05:25:19;101965.88;;;-1.29;89.62
4273;BME280;63887;53.656;9.810;2022-12-19T05:27:45;101967.81;;;-1.10;89.53
4273;BME280;63887;53.656;9.810;2022-12-19T05:30:13;101966.09;;;-1.11;89.23
4273;BME280;63887;53.656;9.810;2022-12-19T05:32:40;101957.53;;;-1.10;89.65
4273;BME280;63887;53.656;9.810;2022-12-19T05:35:06;101964.56;;;-0.97;89.22
4273;BME280;63887;53.656;9.810;2022-12-19T05:37:33;101949.09;;;-0.98;89.35
4273;BME280;63887;53.656;9.810;2022-12-19T05:39:59;101939.78;;;-0.87;89.30
4273;BME280;63887;53.656;9.810;2022-12-19T05:42:26;101940.66;;;-0.86;89.10
4273;BME280;63887;53.656;9.810;2022-12-19T05:44:52;101938.06;;;-0.88;90.03
4273;BME280;63887;53.656;9.810;2022-12-19T05:47:21;101948.38;;;-0.88;89.77
4273;BME280;63887;53.656;9.810;2022-12-19T05:49:48;101936.44;;;-0.77;89.80
4273;BME280;63887;53.656;9.810;2022-12-19T05:52:14;101935.63;;;-0.74;89.96
4273;BME280;63887;53.656;9.810;2022-12-19T05:54:41;101926.13;;;-0.77;90.06
4273;BME280;63887;53.656;9.810;2022-12-19T05:57:07;101933.94;;;-0.72;90.25
4273;BME280;63887;53.656;9.810;2022-12-19T05:59:33;101911.78;;;-0.55;89.67
4273;BME280;63887;53.656;9.810;2022-12-19T06:02:00;101912.59;;;-0.57;89.72
4273;BME280;63887;53.656;9.810;2022-12-19T06:04:29;101915.22;;;-0.54;89.77
4273;BME280;63887;53.656;9.810;2022-12-19T06:06:55;101910.03;;;-0.56;89.76
4273;BME280;63887;53.656;9.810;2022-12-19T06:09:22;101908.34;;;-0.52;90.18
4273;BME280;63887;53.656;9.810;2022-12-19T06:11:48;101899.78;;;-0.48;90.36
4273;BME280;63887;53.656;9.810;2022-12-19T06:14:15;101901.50;;;-0.49;90.81
4273;BME280;63887;53.656;9.810;2022-12-19T06:16:41;101884.44;;;-0.33;90.44
4273;BME280;63887;53.656;9.810;2022-12-19T06:19:08;101884.53;;;-0.27;90.18
4273;BME280;63887;53.656;9.810;2022-12-19T06:21:35;101879.28;;;-0.38;90.87
4273;BME280;63887;53.656;9.810;2022-12-19T06:24:02;101886.09;;;-0.43;90.69
4273;BME280;63887;53.656;9.810;2022-12-19T06:26:29;101892.19;;;-0.35;90.99
4273;BME280;63887;53.656;9.810;2022-12-19T06:28:56;101900.84;;;-0.28;90.79
4273;BME280;63887;53.656;9.810;2022-12-19T06:31:23;101898.25;;;-0.29;91.00
4273;BME280;63887;53.656;9.810;2022-12-19T06:33:50;101892.28;;;-0.19;90.33
4273;BME280;63887;53.656;9.810;2022-12-19T06:36:19;101883.72;;;-0.15;90.70
4273;BME280;63887;53.656;9.810;2022-12-19T06:38:47;101887.16;;;-0.18;90.63
4273;BME280;63887;53.656;9.810;2022-12-19T06:41:15;101874.31;;;-0.13;91.14
4273;BME280;63887;53.656;9.810;2022-12-19T06:44:01;101880.31;;;-0.14;90.82
4273;BME280;63887;53.656;9.810;2022-12-19T06:46:29;101882.06;;;-0.12;91.18
4273;BME280;63887;53.656;9.810;2022-12-19T06:48:55;101886.34;;;-0.11;91.08
4273;BME280;63887;53.656;9.810;2022-12-19T06:51:22;101880.25;;;-0.23;91.30
4273;BME280;63887;53.656;9.810;2022-12-19T06:53:50;101879.53;;;-0.03;90.86
4273;BME280;63887;53.656;9.810;2022-12-19T06:56:17;101879.53;;;-0.01;90.97
4273;BME280;63887;53.656;9.810;2022-12-19T06:58:44;101874.41;;;0.02;91.35
4273;BME280;63887;53.656;9.810;2022-12-19T07:01:16;101877.78;;;-0.05;91.00
4273;BME280;63887;53.656;9.810;2022-12-19T07:03:43;101879.50;;;-0.06;91.93
4273;BME280;63887;53.656;9.810;2022-12-19T07:06:11;101877.84;;;0.01;91.25
4273;BME280;63887;53.656;9.810;2022-12-19T07:08:38;101870.97;;;0.03;91.67
4273;BME280;63887;53.656;9.810;2022-12-19T07:11:05;101871.88;;;0.10;91.40
4273;BME280;63887;53.656;9.810;2022-12-19T07:13:32;101874.41;;;0.04;91.51
4273;BME280;63887;53.656;9.810;2022-12-19T07:16:00;101876.22;;;0.18;91.38
4273;BME280;63887;53.656;9.810;2022-12-19T07:18:28;101872.81;;;0.21;90.86
4273;BME280;63887;53.656;9.810;2022-12-19T07:20:56;101872.72;;;0.12;92.25
4273;BME280;63887;53.656;9.810;2022-12-19T07:23:23;101868.47;;;0.17;91.37
4273;BME280;63887;53.656;9.810;2022-12-19T07:25:49;101871.09;;;0.24;91.77
4273;BME280;63887;53.656;9.810;2022-12-19T07:28:17;101867.66;;;0.22;91.59
4273;BME280;63887;53.656;9.810;2022-12-19T07:30:44;101863.31;;;0.15;92.77
4273;BME280;63887;53.656;9.810;2022-12-19T07:33:10;101866.78;;;0.23;93.31
4273;BME280;63887;53.656;9.810;2022-12-19T07:35:36;101855.69;;;0.37;92.87
4273;BME280;63887;53.656;9.810;2022-12-19T07:38:04;101853.09;;;0.38;93.02
4273;BME280;63887;53.656;9.810;2022-12-19T07:40:31;101853.09;;;0.31;93.06
4273;BME280;63887;53.656;9.810;2022-12-19T07:42:58;101864.28;;;0.36;93.30
4273;BME280;63887;53.656;9.810;2022-12-19T07:45:27;101850.53;;;0.38;93.11
4273;BME280;63887;53.656;9.810;2022-12-19T07:47:54;101861.66;;;0.29;93.46
4273;BME280;63887;53.656;9.810;2022-12-19T07:50:21;101852.25;;;0.42;93.85
4273;BME280;63887;53.656;9.810;2022-12-19T07:52:47;101853.09;;;0.40;93.93
4273;BME280;63887;53.656;9.810;2022-12-19T07:55:14;101848.81;;;0.43;93.64
4273;BME280;63887;53.656;9.810;2022-12-19T07:57:40;101848.88;;;0.57;93.57
4273;BME280;63887;53.656;9.810;2022-12-19T08:00:08;101840.28;;;0.59;93.34
4273;BME280;63887;53.656;9.810;2022-12-19T08:02:36;101857.47;;;0.50;93.57
4273;BME280;63887;53.656;9.810;2022-12-19T08:05:03;101852.28;;;0.47;93.63
4273;BME280;63887;53.656;9.810;2022-12-19T08:07:29;101847.13;;;0.47;93.86
4273;BME280;63887;53.656;9.810;2022-12-19T08:09:56;101844.56;;;0.47;94.37
4273;BME280;63887;53.656;9.810;2022-12-19T08:12:23;101843.72;;;0.57;93.88
4273;BME280;63887;53.656;9.810;2022-12-19T08:14:51;101843.69;;;0.54;94.02
4273;BME280;63887;53.656;9.810;2022-12-19T08:17:17;101839.41;;;0.56;94.73
4273;BME280;63887;53.656;9.810;2022-12-19T08:19:45;101841.13;;;0.52;94.66
4273;BME280;63887;53.656;9.810;2022-12-19T08:22:11;101829.94;;;0.55;94.86
4273;BME280;63887;53.656;9.810;2022-12-19T08:24:38;101828.25;;;0.66;94.17
4273;BME280;63887;53.656;9.810;2022-12-19T08:27:04;101825.69;;;0.68;94.92
4273;BME280;63887;53.656;9.810;2022-12-19T08:29:31;101821.38;;;0.64;95.39
4273;BME280;63887;53.656;9.810;2022-12-19T08:31:57;101816.25;;;0.82;94.46
4273;BME280;63887;53.656;9.810;2022-12-19T08:34:24;101816.25;;;0.77;95.10
4273;BME280;63887;53.656;9.810;2022-12-19T08:36:54;101814.53;;;0.75;94.95
4273;BME280;63887;53.656;9.810;2022-12-19T08:39:20;101821.38;;;0.65;94.76
4273;BME280;63887;53.656;9.810;2022-12-19T08:41:47;101812.78;;;0.69;94.87
4273;BME280;63887;53.656;9.810;2022-12-19T08:44:13;101812.78;;;0.63;96.32
4273;BME280;63887;53.656;9.810;2022-12-19T08:46:40;101815.38;;;0.78;95.87
4273;BME280;63887;53.656;9.810;2022-12-19T08:49:06;101807.66;;;0.89;95.67
4273;BME280;63887;53.656;9.810;2022-12-19T08:51:33;101810.25;;;0.91;95.53
4273;BME280;63887;53.656;9.810;2022-12-19T08:54:01;101805.94;;;0.96;95.51
4273;BME280;63887;53.656;9.810;2022-12-19T08:56:27;101812.84;;;0.92;95.60
4273;BME280;63887;53.656;9.810;2022-12-19T08:58:54;101801.66;;;1.07;95.83
4273;BME280;63887;53.656;9.810;2022-12-19T09:01:21;101806.81;;;1.04;95.54
4273;BME280;63887;53.656;9.810;2022-12-19T09:03:48;101805.09;;;1.00;95.75
4273;BME280;63887;53.656;9.810;2022-12-19T09:06:15;101803.38;;;1.09;95.45
4273;BME280;63887;53.656;9.810;2022-12-19T09:08:42;101799.94;;;1.06;95.87
4273;BME280;63887;53.656;9.810;2022-12-19T09:11:12;101799.94;;;1.07;95.90
4273;BME280;63887;53.656;9.810;2022-12-19T09:13:40;101790.47;;;1.34;95.10
4273;BME280;63887;53.656;9.810;2022-12-19T09:16:09;101801.69;;;1.25;96.04
4273;BME280;63887;53.656;9.810;2022-12-19T09:18:36;101799.09;;;1.25;95.67
4273;BME280;63887;53.656;9.810;2022-12-19T09:21:03;101782.72;;;1.29;95.70
4273;BME280;63887;53.656;9.810;2022-12-19T09:23:30;101787.03;;;1.21;95.79
4273;BME280;63887;53.656;9.810;2022-12-19T09:26:01;101791.34;;;1.37;95.41
4273;BME280;63887;53.656;9.810;2022-12-19T09:28:30;101781.88;;;1.35;96.13
4273;BME280;63887;53.656;9.810;2022-12-19T09:30:57;101782.72;;;1.29;96.36
4273;BME280;63887;53.656;9.810;2022-12-19T09:33:24;101777.56;;;1.35;96.20
4273;BME280;63887;53.656;9.810;2022-12-19T09:35:50;101770.66;;;1.39;95.48
4273;BME280;63887;53.656;9.810;2022-12-19T09:38:18;101766.34;;;1.38;96.00
4273;BME280;63887;53.656;9.810;2022-12-19T09:40:58;101778.41;;;1.40;95.79
4273;BME280;63887;53.656;9.810;2022-12-19T09:43:40;101770.66;;;1.40;95.86
4273;BME280;63887;53.656;9.810;2022-12-19T09:46:15;101768.03;;;1.48;96.55
4273;BME280;63887;53.656;9.810;2022-12-19T09:48:44;101766.34;;;1.52;96.21
4273;BME280;63887;53.656;9.810;2022-12-19T09:51:13;101769.78;;;1.49;96.52
4273;BME280;63887;53.656;9.810;2022-12-19T09:53:54;101765.47;;;1.51;96.21
4273;BME280;63887;53.656;9.810;2022-12-19T09:56:26;101760.31;;;1.53;96.81
4273;BME280;63887;53.656;9.810;2022-12-19T09:58:59;101756.84;;;1.57;96.14
4273;BME280;63887;53.656;9.810;2022-12-19T10:01:31;101751.66;;;1.57;96.44
4273;BME280;63887;53.656;9.810;2022-12-19T10:04:02;101743.00;;;1.74;96.42
4273;BME280;63887;53.656;9.810;2022-12-19T10:06:30;101749.94;;;1.69;96.74
4273;BME280;63887;53.656;9.810;2022-12-19T10:08:58;101747.31;;;1.83;95.90
4273;BME280;63887;53.656;9.810;2022-12-19T10:11:36;101750.75;;;1.85;95.59
4273;BME280;63887;53.656;9.810;2022-12-19T10:14:19;101745.56;;;1.85;95.92
4273;BME280;63887;53.656;9.810;2022-12-19T10:16:52;101744.72;;;1.78;96.50
4273;BME280;63887;53.656;9.810;2022-12-19T10:19:29;101736.91;;;1.92;95.96
4273;BME280;63887;53.656;9.810;2022-12-19T10:22:02;101748.19;;;1.81;96.44
4273;BME280;63887;53.656;9.810;2022-12-19T10:25:00;101736.91;;;2.00;96.20
4273;BME280;63887;53.656;9.810;2022-12-19T10:27:33;101734.31;;;2.01;95.84
4273;BME280;63887;53.656;9.810;2022-12-19T10:30:11;101730.03;;;1.90;95.93
4273;BME280;63887;53.656;9.810;2022-12-19T10:32:45;101731.75;;;1.97;96.41
4273;BME280;63887;53.656;9.810;2022-12-19T10:35:18;101717.06;;;1.99;96.86
4273;BME280;63887;53.656;9.810;2022-12-19T10:37:49;101711.03;;;1.97;96.53
4273;BME280;63887;53.656;9.810;2022-12-19T10:40:22;101718.81;;;1.94;96.30
4273;BME280;63887;53.656;9.810;2022-12-19T10:42:55;101719.69;;;1.87;96.90
4273;BME280;63887;53.656;9.810;2022-12-19T10:45:29;101711.03;;;1.92;96.54
4273;BME280;63887;53.656;9.810;2022-12-19T10:47:58;101715.38;;;1.89;97.18
4273;BME280;63887;53.656;9.810;2022-12-19T10:50:27;101716.22;;;1.97;97.53
4273;BME280;63887;53.656;9.810;2022-12-19T10:52:55;101718.81;;;1.92;96.87
4273;BME280;63887;53.656;9.810;2022-12-19T10:55:41;101698.00;;;2.17;96.82
4273;BME280;63887;53.656;9.810;2022-12-19T10:58:17;101706.66;;;2.11;96.88
4273;BME280;63887;53.656;9.810;2022-12-19T11:01:00;101683.34;;;2.17;96.98
4273;BME280;63887;53.656;9.810;2022-12-19T11:03:28;101693.66;;;2.23;97.17
4273;BME280;63887;53.656;9.810;2022-12-19T11:05:56;101692.78;;;2.21;97.12
4273;BME280;63887;53.656;9.810;2022-12-19T11:08:25;101681.59;;;2.19;96.94
4273;BME280;63887;53.656;9.810;2022-12-19T11:10:53;101687.66;;;2.17;96.56
4273;BME280;63887;53.656;9.810;2022-12-19T11:13:23;101679.00;;;2.19;96.71
4273;BME280;63887;53.656;9.810;2022-12-19T11:15:52;101677.28;;;2.18;96.99
4273;BME280;63887;53.656;9.810;2022-12-19T11:18:20;101667.78;;;2.22;97.00
4273;BME280;63887;53.656;9.810;2022-12-19T11:20:56;101661.69;;;2.32;97.34
4273;BME280;63887;53.656;9.810;2022-12-19T11:23:24;101664.28;;;2.29;97.18
4273;BME280;63887;53.656;9.810;2022-12-19T11:25:55;101651.34;;;2.29;96.95
4273;BME280;63887;53.656;9.810;2022-12-19T11:28:26;101657.28;;;2.43;97.36
4273;BME280;63887;53.656;9.810;2022-12-19T11:30:56;101659.91;;;2.42;96.88
4273;BME280;63887;53.656;9.810;2022-12-19T11:33:24;101657.22;;;2.52;97.22
4273;BME280;63887;53.656;9.810;2022-12-19T11:35:53;101648.59;;;2.50;97.37
4273;BME280;63887;53.656;9.810;2022-12-19T11:38:28;101649.41;;;2.58;97.04
4273;BME280;63887;53.656;9.810;2022-12-19T11:40:59;101638.16;;;2.62;97.23
4273;BME280;63887;53.656;9.810;2022-12-19T11:43:32;101641.50;;;2.77;97.00
4273;BME280;63887;53.656;9.810;2022-12-19T11:46:08;101638.09;;;2.70;96.98
4273;BME280;63887;53.656;9.810;2022-12-19T11:48:42;101642.44;;;2.69;96.69
4273;BME280;63887;53.656;9.810;2022-12-19T11:51:16;101636.31;;;2.77;96.87
4273;BME280;63887;53.656;9.810;2022-12-19T11:53:48;101633.75;;;2.74;96.89
4273;BME280;63887;53.656;9.810;2022-12-19T11:56:17;101635.50;;;2.72;96.76
4273;BME280;63887;53.656;9.810;2022-12-19T11:58:48;101627.72;;;2.73;97.03
4273;BME280;63887;53.656;9.810;2022-12-19T12:01:21;101619.94;;;2.73;97.21
4273;BME280;63887;53.656;9.810;2022-12-19T12:04:05;101633.63;;;2.87;96.71
4273;BME280;63887;53.656;9.810;2022-12-19T12:06:39;101625.91;;;2.81;96.81
4273;BME280;63887;53.656;9.810;2022-12-19T12:09:16;101619.91;;;2.78;97.17
4273;BME280;63887;53.656;9.810;2022-12-19T12:11:50;101610.22;;;2.96;96.75
4273;BME280;63887;53.656;9.810;2022-12-19T12:14:19;101611.97;;;2.94;96.60
4273;BME280;63887;53.656;9.810;2022-12-19T12:17:01;101611.94;;;2.99;96.92
4273;BME280;63887;53.656;9.810;2022-12-19T12:19:45;101603.22;;;3.05;96.75
4273;BME280;63887;53.656;9.810;2022-12-19T12:22:25;101610.19;;;3.01;96.78
4273;BME280;63887;53.656;9.810;2022-12-19T12:25:06;101602.31;;;3.09;97.55
4273;BME280;63887;53.656;9.810;2022-12-19T12:27:43;101602.28;;;3.13;97.17
4273;BME280;63887;53.656;9.810;2022-12-19T12:30:16;101598.00;;;3.09;97.16
4273;BME280;63887;53.656;9.810;2022-12-19T12:32:53;101601.41;;;3.11;97.15
4273;BME280;63887;53.656;9.810;2022-12-19T12:35:32;101600.53;;;3.17;96.81
4273;BME280;63887;53.656;9.810;2022-12-19T12:38:10;101597.91;;;3.18;97.24
4273;BME280;63887;53.656;9.810;2022-12-19T12:41:02;101597.78;;;3.29;97.29
4273;BME280;63887;53.656;9.810;2022-12-19T12:43:56;101588.34;;;3.22;97.36
4273;BME280;63887;53.656;9.810;2022-12-19T12:46:30;101579.66;;;3.26;97.45
4273;BME280;63887;53.656;9.810;2022-12-19T12:49:03;101584.88;;;3.24;97.43
4273;BME280;63887;53.656;9.810;2022-12-19T12:51:32;101584.63;;;3.46;96.98
4273;BME280;63887;53.656;9.810;2022-12-19T12:54:02;101586.38;;;3.45;97.71
4273;BME280;63887;53.656;9.810;2022-12-19T12:56:32;101580.22;;;3.51;96.87
4273;BME280;63887;53.656;9.810;2022-12-19T12:59:21;101582.84;;;3.49;97.39
4273;BME280;63887;53.656;9.810;2022-12-19T13:01:50;101575.91;;;3.51;97.42
4273;BME280;63887;53.656;9.810;2022-12-19T13:04:20;101579.16;;;3.67;97.08
4273;BME280;63887;53.656;9.810;2022-12-19T13:09:49;101574.81;;;3.69;97.43
4273;BME280;63887;53.656;9.810;2022-12-19T13:12:23;101565.81;;;3.95;97.05
4273;BME280;63887;53.656;9.810;2022-12-19T13:15:32;101572.84;;;3.88;96.69
4273;BME280;63887;53.656;9.810;2022-12-19T13:18:12;101568.53;;;3.85;96.42
4273;BME280;63887;53.656;9.810;2022-12-19T13:20:42;101576.34;;;3.82;97.39
4273;BME280;63887;53.656;9.810;2022-12-19T13:23:22;101564.25;;;3.83;96.88
4273;BME280;63887;53.656;9.810;2022-12-19T13:25:51;101565.06;;;3.88;96.47
4273;BME280;63887;53.656;9.810;2022-12-19T13:28:39;101570.19;;;3.91;96.61